Time;durP1;ratioP1;P1;durP2;ratioP2;P2;SDS_P1;SDS_P2;PMS_P1;PMS_P2;Temp;Humidity;BMP_temperature;BMP_pressure;BME280_temperature;BME280_humidity;BME280_pressure;Samples;Min_cycle;Max_cycle;Signal;HPM_P1;HPM_P2
2022/01/07 00:01:06;;;;;;;;;;;4.20;99.90;;;;;;5076359;28;19958;-45
2022/01/07 00:03:33;;;;;;;;;;;4.20;99.90;;;;;;5076466;28;20356;-46
2022/01/07 00:05:59;;;;;;;;;;;4.20;99.90;;;;;;5076090;28;19935;-45
2022/01/07 00:08:25;;;;;;;;;;;4.20;99.90;;;;;;5076132;28;19909;-45
2022/01/07 00:10:51;;;;;;;;;;;4.20;99.90;;;;;;5076351;28;20052;-45
2022/01/07 00:13:16;;;;;;;;;;;4.20;99.90;;;;;;5069376;28;20367;-45
2022/01/07 00:15:42;;;;;;;;;;;4.20;99.90;;;;;;5056011;28;19957;-45
2022/01/07 00:18:07;;;;;;;;;;;4.20;99.90;;;;;;5056196;28;20356;-48
2022/01/07 00:20:33;;;;;;;;;;;4.20;99.90;;;;;;5055757;28;20380;-46
2022/01/07 00:22:59;;;;;;;;;;;4.20;99.90;;;;;;5055849;28;19909;-46
2022/01/07 00:25:24;;;;;;;;;;;4.20;99.90;;;;;;5055679;28;19916;-46
2022/01/07 00:27:50;;;;;;;;;;;4.20;99.90;;;;;;5056014;28;19961;-45
2022/01/07 00:30:16;;;;;;;;;;;4.20;99.90;;;;;;5055917;28;19944;-45
2022/01/07 00:32:42;;;;;;;;;;;4.20;99.90;;;;;;5058498;28;19919;-46
2022/01/07 00:35:08;;;;;;;;;;;4.20;99.90;;;;;;5075838;28;19908;-45
2022/01/07 00:37:33;;;;;;;;;;;4.30;99.90;;;;;;5075330;28;19921;-46
2022/01/07 00:39:59;;;;;;;;;;;4.20;99.90;;;;;;5075267;28;19924;-46
2022/01/07 00:42:24;;;;;;;;;;;4.20;99.90;;;;;;5075685;28;19915;-49
2022/01/07 00:44:50;;;;;;;;;;;4.20;99.90;;;;;;5075743;28;20278;-45
2022/01/07 00:47:16;;;;;;;;;;;4.20;99.90;;;;;;5075248;28;19916;-47
2022/01/07 00:49:42;;;;;;;;;;;4.30;99.90;;;;;;5075472;28;19994;-45
2022/01/07 00:52:07;;;;;;;;;;;4.20;99.90;;;;;;5074604;28;19908;-45
2022/01/07 00:54:33;;;;;;;;;;;4.20;99.90;;;;;;5056082;28;19917;-46
2022/01/07 00:56:58;;;;;;;;;;;4.20;99.90;;;;;;5055363;28;19909;-45
2022/01/07 00:59:24;;;;;;;;;;;4.20;99.90;;;;;;5055424;28;19916;-46
2022/01/07 01:01:49;;;;;;;;;;;4.20;99.90;;;;;;5054931;28;19909;-46
2022/01/07 01:04:15;;;;;;;;;;;4.20;99.90;;;;;;5054616;28;20291;-46
2022/01/07 01:06:41;;;;;;;;;;;4.20;99.90;;;;;;5055277;28;19913;-47
2022/01/07 01:09:07;;;;;;;;;;;4.10;99.90;;;;;;5055032;28;19916;-45
2022/01/07 01:11:32;;;;;;;;;;;4.10;99.90;;;;;;5055144;28;19921;-45
2022/01/07 01:13:58;;;;;;;;;;;4.00;99.90;;;;;;5055176;28;19935;-44
2022/01/07 01:16:23;;;;;;;;;;;3.90;99.90;;;;;;5054749;28;20376;-45
2022/01/07 01:18:49;;;;;;;;;;;3.90;99.90;;;;;;5054736;28;20050;-46
2022/01/07 01:21:14;;;;;;;;;;;3.80;99.90;;;;;;5054816;28;19916;-45
2022/01/07 01:23:41;;;;;;;;;;;3.80;99.90;;;;;;5063598;28;19913;-44
2022/01/07 01:26:07;;;;;;;;;;;3.70;99.90;;;;;;5074700;28;19913;-46
2022/01/07 01:28:32;;;;;;;;;;;3.70;99.90;;;;;;5074288;28;19970;-46
2022/01/07 01:30:58;;;;;;;;;;;3.60;99.90;;;;;;5074738;28;19909;-45
2022/01/07 01:33:23;;;;;;;;;;;3.60;99.90;;;;;;5074636;28;19912;-44
2022/01/07 01:35:49;;;;;;;;;;;3.60;99.90;;;;;;5074171;28;19950;-45
2022/01/07 01:38:14;;;;;;;;;;;3.60;99.90;;;;;;5074294;28;19920;-45
2022/01/07 01:40:40;;;;;;;;;;;3.50;99.90;;;;;;5074284;28;19920;-44
2022/01/07 01:43:05;;;;;;;;;;;3.50;99.90;;;;;;5074140;28;20332;-45
2022/01/07 01:45:31;;;;;;;;;;;3.50;99.90;;;;;;5074348;28;19912;-46
2022/01/07 01:47:56;;;;;;;;;;;3.50;99.90;;;;;;5074421;28;20523;-44
2022/01/07 01:50:22;;;;;;;;;;;3.50;99.90;;;;;;5074017;28;19915;-45
2022/01/07 01:52:50;;;;;;;;;;;3.50;99.90;;;;;;5068041;28;19960;-45
2022/01/07 01:55:16;;;;;;;;;;;3.40;99.90;;;;;;5054521;28;19913;-46
2022/01/07 01:57:42;;;;;;;;;;;3.40;99.90;;;;;;5053893;28;19935;-45
2022/01/07 02:00:09;;;;;;;;;;;3.40;99.90;;;;;;5054109;28;19916;-46
2022/01/07 02:02:34;;;;;;;;;;;3.40;99.90;;;;;;5054056;28;20417;-45
2022/01/07 02:05:00;;;;;;;;;;;3.50;99.90;;;;;;5053612;28;19995;-45
2022/01/07 02:07:27;;;;;;;;;;;3.40;99.90;;;;;;5054089;28;19916;-45
2022/01/07 02:09:53;;;;;;;;;;;3.40;99.90;;;;;;5054060;28;20050;-46
2022/01/07 02:12:18;;;;;;;;;;;3.40;99.90;;;;;;5053860;28;19999;-45
2022/01/07 02:14:55;;;;;;;;;;;3.40;99.90;;;;;;5053805;28;20415;-46
2022/01/07 02:17:22;;;;;;;;;;;3.40;99.90;;;;;;5053066;28;20411;-45
2022/01/07 02:19:48;;;;;;;;;;;3.40;99.90;;;;;;5053381;28;20387;-47
2022/01/07 02:22:13;;;;;;;;;;;3.40;99.90;;;;;;5056555;28;20372;-46
2022/01/07 02:24:39;;;;;;;;;;;3.40;99.90;;;;;;5073739;28;19919;-45
2022/01/07 02:27:05;;;;;;;;;;;3.40;99.90;;;;;;5073489;28;19912;-45
2022/01/07 02:29:31;;;;;;;;;;;3.40;99.90;;;;;;5073632;28;19909;-45
2022/01/07 02:31:56;;;;;;;;;;;3.40;99.90;;;;;;5073271;28;19977;-46
2022/01/07 02:34:22;;;;;;;;;;;3.40;99.90;;;;;;5073695;28;19908;-45
2022/01/07 02:36:47;;;;;;;;;;;3.40;99.90;;;;;;5073094;28;19920;-46
2022/01/07 02:39:13;;;;;;;;;;;3.30;99.90;;;;;;5073261;28;19974;-46
2022/01/07 02:41:38;;;;;;;;;;;3.30;99.90;;;;;;5073351;28;20435;-46
2022/01/07 02:44:04;;;;;;;;;;;3.30;99.90;;;;;;5073613;28;19912;-46
2022/01/07 02:46:29;;;;;;;;;;;3.30;99.90;;;;;;5073148;28;20011;-45
2022/01/07 02:48:55;;;;;;;;;;;3.30;99.90;;;;;;5073266;28;20379;-45
2022/01/07 02:51:20;;;;;;;;;;;3.30;99.90;;;;;;5073535;28;20304;-46
2022/01/07 02:53:45;;;;;;;;;;;3.30;99.90;;;;;;5056968;28;20387;-45
2022/01/07 02:56:11;;;;;;;;;;;3.30;99.90;;;;;;5053211;28;20007;-45
2022/01/07 02:58:37;;;;;;;;;;;3.30;99.90;;;;;;5053345;28;19913;-45
2022/01/07 03:01:02;;;;;;;;;;;3.30;99.90;;;;;;5059471;28;20016;-45
2022/01/07 03:03:28;;;;;;;;;;;3.30;99.90;;;;;;5073228;28;19909;-46
2022/01/07 03:05:53;;;;;;;;;;;3.30;99.90;;;;;;5073282;28;19908;-46
2022/01/07 03:08:19;;;;;;;;;;;3.30;99.90;;;;;;5072420;28;20374;-45
2022/01/07 03:10:44;;;;;;;;;;;3.30;99.90;;;;;;5071528;28;19912;-46
2022/01/07 03:13:10;;;;;;;;;;;3.20;99.90;;;;;;5073193;28;20038;-45
2022/01/07 03:15:37;;;;;;;;;;;3.30;99.90;;;;;;5072923;28;20015;-47
2022/01/07 03:18:06;;;;;;;;;;;3.20;99.90;;;;;;5073041;28;19934;-45
2022/01/07 03:20:38;;;;;;;;;;;3.30;99.90;;;;;;5073221;28;19947;-46
2022/01/07 03:23:04;;;;;;;;;;;3.30;99.90;;;;;;5063178;28;19913;-45
2022/01/07 03:25:30;;;;;;;;;;;3.30;99.90;;;;;;5053104;28;20268;-46
2022/01/07 03:27:55;;;;;;;;;;;3.30;99.90;;;;;;5054668;28;20348;-45
2022/01/07 03:30:21;;;;;;;;;;;3.30;99.90;;;;;;5056651;28;19948;-45
2022/01/07 03:32:46;;;;;;;;;;;3.20;99.90;;;;;;5056850;28;20015;-46
2022/01/07 03:35:13;;;;;;;;;;;3.30;99.90;;;;;;5056758;28;19913;-45
2022/01/07 03:37:39;;;;;;;;;;;3.30;99.90;;;;;;5056682;28;19921;-45
2022/01/07 03:40:05;;;;;;;;;;;3.30;99.90;;;;;;5056772;28;20433;-45
2022/01/07 03:42:31;;;;;;;;;;;3.30;99.90;;;;;;5056316;28;19935;-47
2022/01/07 03:44:56;;;;;;;;;;;3.30;99.90;;;;;;5056492;28;19913;-46
2022/01/07 03:47:22;;;;;;;;;;;3.30;99.90;;;;;;5056827;28;20050;-45
2022/01/07 03:49:47;;;;;;;;;;;3.30;99.90;;;;;;5056397;28;19912;-46
2022/01/07 03:52:13;;;;;;;;;;;3.30;99.90;;;;;;5057843;28;19961;-47
2022/01/07 03:54:38;;;;;;;;;;;3.30;99.90;;;;;;5076598;28;19908;-45
2022/01/07 03:57:04;;;;;;;;;;;3.30;99.90;;;;;;5076324;28;20352;-46
2022/01/07 03:59:30;;;;;;;;;;;3.40;99.90;;;;;;5076232;28;19935;-45
2022/01/07 04:01:55;;;;;;;;;;;3.40;99.90;;;;;;5076409;28;19915;-46
2022/01/07 04:04:21;;;;;;;;;;;3.40;99.90;;;;;;5076098;28;19998;-46
2022/01/07 04:06:46;;;;;;;;;;;3.40;99.90;;;;;;5076189;28;20104;-47
2022/01/07 04:09:11;;;;;;;;;;;3.40;99.90;;;;;;5076439;28;20389;-46
2022/01/07 04:11:37;;;;;;;;;;;3.40;99.90;;;;;;5075700;28;19919;-45
2022/01/07 04:14:02;;;;;;;;;;;3.40;99.90;;;;;;5076050;28;19958;-45
2022/01/07 04:16:28;;;;;;;;;;;3.40;99.90;;;;;;5076218;28;19940;-46
2022/01/07 04:18:53;;;;;;;;;;;3.40;99.90;;;;;;5075717;28;19920;-46
2022/01/07 04:21:19;;;;;;;;;;;3.40;99.90;;;;;;5076100;28;19916;-45
2022/01/07 04:23:44;;;;;;;;;;;3.40;99.90;;;;;;5061808;28;19935;-46
2022/01/07 04:26:10;;;;;;;;;;;3.40;99.90;;;;;;5055811;28;19912;-46
2022/01/07 04:28:35;;;;;;;;;;;3.40;99.90;;;;;;5055856;28;19909;-45
2022/01/07 04:31:01;;;;;;;;;;;3.40;99.90;;;;;;5055846;28;19916;-46
2022/01/07 04:33:26;;;;;;;;;;;3.50;99.90;;;;;;5055618;28;19913;-45
2022/01/07 04:35:53;;;;;;;;;;;3.40;99.90;;;;;;5055674;28;19960;-45
2022/01/07 04:38:19;;;;;;;;;;;3.50;99.90;;;;;;5069176;28;20006;-47
2022/01/07 04:40:44;;;;;;;;;;;3.50;99.90;;;;;;5074355;28;20003;-47
2022/01/07 04:43:11;;;;;;;;;;;3.50;99.90;;;;;;5075597;28;19908;-47
2022/01/07 04:45:37;;;;;;;;;;;3.50;99.90;;;;;;5075274;28;20247;-46
2022/01/07 04:48:03;;;;;;;;;;;3.50;99.90;;;;;;5075576;28;19909;-47
2022/01/07 04:50:28;;;;;;;;;;;3.50;99.90;;;;;;5075645;28;20006;-47
2022/01/07 04:52:54;;;;;;;;;;;3.50;99.90;;;;;;5068895;28;19960;-47
2022/01/07 04:55:29;;;;;;;;;;;3.50;99.90;;;;;;5055148;28;19908;-45
2022/01/07 04:57:55;;;;;;;;;;;3.60;99.90;;;;;;5055461;28;19912;-48
2022/01/07 05:00:21;;;;;;;;;;;3.50;99.90;;;;;;5055093;28;20357;-45
2022/01/07 05:02:47;;;;;;;;;;;3.50;99.90;;;;;;5055275;28;19916;-46
2022/01/07 05:05:12;;;;;;;;;;;3.50;99.90;;;;;;5055694;28;19912;-47
2022/01/07 05:07:38;;;;;;;;;;;3.50;99.90;;;;;;5054939;28;20363;-46
2022/01/07 05:10:05;;;;;;;;;;;3.50;99.90;;;;;;5054895;28;20356;-46
2022/01/07 05:12:30;;;;;;;;;;;3.50;99.90;;;;;;5054979;28;20401;-45
2022/01/07 05:14:56;;;;;;;;;;;3.50;99.90;;;;;;5054692;28;20383;-46
2022/01/07 05:17:21;;;;;;;;;;;3.50;99.90;;;;;;5054889;28;19909;-46
2022/01/07 05:19:47;;;;;;;;;;;3.50;99.90;;;;;;5055014;28;19936;-46
2022/01/07 05:22:12;;;;;;;;;;;3.50;99.90;;;;;;5054619;28;19916;-47
2022/01/07 05:24:38;;;;;;;;;;;3.60;99.90;;;;;;5074778;28;19909;-46
2022/01/07 05:27:03;;;;;;;;;;;3.50;99.90;;;;;;5074893;28;20430;-47
2022/01/07 05:29:33;;;;;;;;;;;3.60;99.90;;;;;;5074529;28;19908;-46
2022/01/07 05:31:58;;;;;;;;;;;3.60;99.90;;;;;;5072507;28;19920;-46
2022/01/07 05:34:24;;;;;;;;;;;3.50;99.90;;;;;;5074799;28;19909;-45
2022/01/07 05:36:49;;;;;;;;;;;3.60;99.90;;;;;;5073874;28;19924;-46
2022/01/07 05:39:15;;;;;;;;;;;3.60;99.90;;;;;;5074349;28;19938;-48
2022/01/07 05:41:40;;;;;;;;;;;3.60;99.90;;;;;;5074318;28;19909;-48
2022/01/07 05:44:06;;;;;;;;;;;3.60;99.90;;;;;;5074255;28;19913;-46
2022/01/07 05:46:32;;;;;;;;;;;3.60;99.90;;;;;;5074785;28;19912;-45
2022/01/07 05:48:57;;;;;;;;;;;3.60;99.90;;;;;;5073996;28;19909;-46
2022/01/07 05:51:23;;;;;;;;;;;3.60;99.90;;;;;;5054588;28;19953;-46
2022/01/07 05:53:48;;;;;;;;;;;3.60;99.90;;;;;;5054392;28;19948;-46
2022/01/07 05:56:14;;;;;;;;;;;3.60;99.90;;;;;;5053864;28;19913;-46
2022/01/07 05:58:39;;;;;;;;;;;3.60;99.90;;;;;;5054021;28;20352;-46
2022/01/07 06:01:05;;;;;;;;;;;3.60;99.90;;;;;;5054217;28;19909;-46
2022/01/07 06:03:32;;;;;;;;;;;3.60;99.90;;;;;;5053811;28;19909;-45
2022/01/07 06:05:57;;;;;;;;;;;3.60;99.90;;;;;;5053960;28;19947;-46
2022/01/07 06:08:23;;;;;;;;;;;3.60;99.90;;;;;;5054007;28;20008;-47
2022/01/07 06:10:48;;;;;;;;;;;3.60;99.90;;;;;;5053517;28;19912;-45
2022/01/07 06:13:14;;;;;;;;;;;3.60;99.90;;;;;;5053998;28;19970;-45
2022/01/07 06:15:39;;;;;;;;;;;3.60;99.90;;;;;;5053905;28;19916;-45
2022/01/07 06:18:05;;;;;;;;;;;3.60;99.90;;;;;;5053614;28;19908;-45
2022/01/07 06:20:31;;;;;;;;;;;3.70;99.90;;;;;;5062859;28;20501;-46
2022/01/07 06:22:56;;;;;;;;;;;3.70;99.90;;;;;;5073462;28;19913;-46
2022/01/07 06:25:21;;;;;;;;;;;3.70;99.90;;;;;;5073378;28;19915;-46
2022/01/07 06:27:47;;;;;;;;;;;3.60;99.90;;;;;;5073658;28;19951;-48
2022/01/07 06:30:12;;;;;;;;;;;3.70;99.90;;;;;;5073762;28;19983;-45
2022/01/07 06:32:38;;;;;;;;;;;3.70;99.90;;;;;;5073461;28;19909;-46
2022/01/07 06:35:04;;;;;;;;;;;3.70;99.90;;;;;;5073528;28;19912;-47
2022/01/07 06:37:29;;;;;;;;;;;3.70;99.90;;;;;;5073486;28;19927;-47
2022/01/07 06:39:55;;;;;;;;;;;3.70;99.90;;;;;;5073109;28;19920;-46
2022/01/07 06:42:21;;;;;;;;;;;3.70;99.90;;;;;;5073506;28;20010;-46
2022/01/07 06:44:46;;;;;;;;;;;3.80;99.90;;;;;;5073666;28;19955;-46
2022/01/07 06:47:12;;;;;;;;;;;3.80;99.90;;;;;;5073046;28;19947;-47
2022/01/07 06:49:38;;;;;;;;;;;3.80;99.90;;;;;;5068825;28;19921;-47
2022/01/07 06:52:03;;;;;;;;;;;3.80;99.90;;;;;;5058089;28;20397;-46
2022/01/07 06:54:31;;;;;;;;;;;3.80;99.90;;;;;;5061199;28;19909;-47
2022/01/07 06:56:57;;;;;;;;;;;3.80;99.90;;;;;;5058831;28;19916;-47
2022/01/07 06:59:22;;;;;;;;;;;3.90;99.90;;;;;;5073218;28;20719;-46
2022/01/07 07:01:48;;;;;;;;;;;3.80;99.90;;;;;;5072977;28;19982;-46
2022/01/07 07:04:15;;;;;;;;;;;3.90;99.90;;;;;;5073312;28;19915;-46
2022/01/07 07:06:40;;;;;;;;;;;3.90;99.90;;;;;;5072918;28;19999;-47
2022/01/07 07:09:06;;;;;;;;;;;3.90;99.90;;;;;;5073110;28;20039;-48
2022/01/07 07:11:31;;;;;;;;;;;3.90;99.90;;;;;;5073395;28;19986;-46
2022/01/07 07:13:57;;;;;;;;;;;3.90;99.90;;;;;;5072755;28;20194;-47
2022/01/07 07:16:26;;;;;;;;;;;3.90;99.90;;;;;;5071729;28;19909;-48
2022/01/07 07:18:51;;;;;;;;;;;3.90;99.90;;;;;;5064139;28;19912;-45
2022/01/07 07:21:17;;;;;;;;;;;3.90;99.90;;;;;;5052337;28;20034;-46
2022/01/07 07:23:42;;;;;;;;;;;3.90;99.90;;;;;;5062732;28;20371;-46
2022/01/07 07:26:08;;;;;;;;;;;3.90;99.90;;;;;;5072673;28;19909;-47
2022/01/07 07:28:36;;;;;;;;;;;3.90;99.90;;;;;;5071924;28;19909;-46
2022/01/07 07:31:05;;;;;;;;;;;3.90;99.90;;;;;;5072215;28;19908;-47
2022/01/07 07:33:53;;;;;;;;;;;3.90;99.90;;;;;;5072159;28;19909;-46
2022/01/07 07:36:27;;;;;;;;;;;3.90;99.90;;;;;;5057580;28;19909;-46
2022/01/07 07:38:53;;;;;;;;;;;4.00;99.90;;;;;;5052302;28;19943;-46
2022/01/07 07:41:19;;;;;;;;;;;4.00;99.90;;;;;;5051982;28;20364;-46
2022/01/07 07:43:46;;;;;;;;;;;3.90;99.90;;;;;;5051852;28;19909;-47
2022/01/07 07:46:11;;;;;;;;;;;4.00;99.90;;;;;;5052426;28;20003;-46
2022/01/07 07:48:37;;;;;;;;;;;4.00;99.90;;;;;;5051787;28;20213;-45
2022/01/07 07:51:02;;;;;;;;;;;4.10;99.90;;;;;;5052109;28;19909;-46
2022/01/07 07:53:28;;;;;;;;;;;4.10;99.90;;;;;;5052075;28;19908;-45
2022/01/07 07:55:53;;;;;;;;;;;4.10;99.90;;;;;;5051717;28;19954;-46
2022/01/07 07:58:23;;;;;;;;;;;4.10;99.90;;;;;;5052264;28;19916;-47
2022/01/07 08:00:49;;;;;;;;;;;4.10;99.90;;;;;;5051829;28;19951;-47
2022/01/07 08:03:14;;;;;;;;;;;4.10;99.90;;;;;;5051701;28;19948;-46
2022/01/07 08:05:40;;;;;;;;;;;4.20;99.90;;;;;;5051662;28;20440;-48
2022/01/07 08:08:05;;;;;;;;;;;4.20;99.90;;;;;;5052134;28;19912;-46
2022/01/07 08:10:32;;;;;;;;;;;4.20;99.90;;;;;;5051653;28;20004;-48
2022/01/07 08:13:27;;;;;;;;;;;4.20;99.90;;;;;;5051729;28;20418;-46
2022/01/07 08:15:58;;;;;;;;;;;4.20;99.90;;;;;;5054635;28;20385;-45
2022/01/07 08:18:24;;;;;;;;;;;4.30;99.90;;;;;;5054857;28;19952;-46
2022/01/07 08:20:50;;;;;;;;;;;4.30;99.90;;;;;;5055421;28;20004;-47
2022/01/07 08:23:15;;;;;;;;;;;4.30;99.90;;;;;;5055665;28;19913;-46
2022/01/07 08:25:41;;;;;;;;;;;4.30;99.90;;;;;;5066885;28;19920;-46
2022/01/07 08:28:08;;;;;;;;;;;4.30;99.90;;;;;;5055298;28;19959;-46
2022/01/07 08:30:37;;;;;;;;;;;4.30;99.90;;;;;;5062939;28;19908;-46
2022/01/07 08:35:47;;;;;;;;;;;4.40;99.90;;;;;;5053834;28;19915;-46
2022/01/07 08:38:13;;;;;;;;;;;4.40;99.90;;;;;;5051908;28;19921;-46
2022/01/07 08:40:38;;;;;;;;;;;4.40;99.90;;;;;;5052826;28;19917;-47
2022/01/07 08:43:04;;;;;;;;;;;4.50;99.90;;;;;;5052870;28;19999;-47
2022/01/07 08:45:29;;;;;;;;;;;4.50;99.90;;;;;;5054714;28;19952;-47
2022/01/07 08:47:55;;;;;;;;;;;4.50;99.90;;;;;;5055069;28;19909;-46
2022/01/07 08:50:20;;;;;;;;;;;4.60;99.90;;;;;;5055511;28;20394;-46
2022/01/07 08:52:46;;;;;;;;;;;4.60;99.90;;;;;;5055235;28;19908;-46
2022/01/07 08:55:12;;;;;;;;;;;4.60;99.90;;;;;;5055319;28;19999;-46
2022/01/07 08:57:37;;;;;;;;;;;4.70;99.90;;;;;;5055506;28;19913;-47
2022/01/07 09:00:03;;;;;;;;;;;4.70;99.90;;;;;;5054944;28;19921;-46
2022/01/07 09:02:29;;;;;;;;;;;4.80;99.90;;;;;;5063102;28;20501;-46
2022/01/07 09:04:55;;;;;;;;;;;4.80;99.90;;;;;;5055159;28;19909;-46
2022/01/07 09:07:21;;;;;;;;;;;4.90;99.90;;;;;;5055007;28;19913;-46
2022/01/07 09:09:46;;;;;;;;;;;4.90;99.90;;;;;;5055170;28;19959;-46
2022/01/07 09:12:12;;;;;;;;;;;4.90;99.90;;;;;;5055077;28;19915;-47
2022/01/07 09:14:37;;;;;;;;;;;5.00;99.90;;;;;;5054681;28;19995;-46
2022/01/07 09:17:03;;;;;;;;;;;5.00;99.90;;;;;;5055010;28;19996;-46
2022/01/07 09:19:29;;;;;;;;;;;5.10;99.90;;;;;;5055144;28;19916;-46
2022/01/07 09:21:56;;;;;;;;;;;5.10;99.90;;;;;;5054588;28;19916;-46
2022/01/07 09:24:22;;;;;;;;;;;5.10;99.90;;;;;;5055076;28;20496;-46
2022/01/07 09:26:48;;;;;;;;;;;5.20;99.90;;;;;;5054108;28;19913;-46
2022/01/07 09:29:13;;;;;;;;;;;5.20;99.90;;;;;;5054665;28;19963;-46
2022/01/07 09:31:39;;;;;;;;;;;5.20;99.90;;;;;;5061105;28;20352;-47
2022/01/07 09:34:06;;;;;;;;;;;5.30;99.90;;;;;;5074387;28;19982;-46
2022/01/07 09:36:32;;;;;;;;;;;5.30;99.90;;;;;;5073683;28;19967;-48
2022/01/07 09:38:57;;;;;;;;;;;5.30;99.90;;;;;;5054636;28;20601;-46
2022/01/07 09:41:23;;;;;;;;;;;5.30;99.90;;;;;;5037938;28;19913;-46
2022/01/07 09:43:48;;;;;;;;;;;5.30;99.90;;;;;;5034491;28;20352;-49
2022/01/07 09:46:14;;;;;;;;;;;5.40;99.90;;;;;;5034471;28;20004;-46
2022/01/07 09:48:41;;;;;;;;;;;5.50;99.90;;;;;;5034252;28;19913;-48
2022/01/07 09:51:07;;;;;;;;;;;5.50;99.90;;;;;;5034236;28;20340;-47
2022/01/07 09:53:32;;;;;;;;;;;5.60;99.90;;;;;;5034599;28;20032;-47
2022/01/07 09:55:58;;;;;;;;;;;5.60;99.90;;;;;;5033908;28;19975;-49
2022/01/07 09:58:23;;;;;;;;;;;5.60;99.90;;;;;;5034419;28;19918;-47
2022/01/07 10:00:49;;;;;;;;;;;5.60;99.90;;;;;;5048801;28;19927;-47
2022/01/07 10:03:16;;;;;;;;;;;5.60;99.90;;;;;;5053782;28;19908;-47
2022/01/07 10:05:42;;;;;;;;;;;5.60;99.90;;;;;;5054074;28;20390;-48
2022/01/07 10:08:19;;;;;;;;;;;5.70;99.90;;;;;;5052326;28;19939;-47
2022/01/07 10:10:45;;;;;;;;;;;5.70;99.90;;;;;;5053756;28;19912;-47
2022/01/07 10:13:11;;;;;;;;;;;5.60;99.90;;;;;;5054008;28;19948;-48
2022/01/07 10:15:37;;;;;;;;;;;5.60;99.90;;;;;;5053949;28;19990;-48
2022/01/07 10:18:04;;;;;;;;;;;5.70;99.90;;;;;;5053348;28;20008;-46
2022/01/07 10:20:50;;;;;;;;;;;5.70;99.90;;;;;;5053835;28;20007;-46
2022/01/07 10:23:23;;;;;;;;;;;5.70;99.90;;;;;;5052975;28;19986;-46
2022/01/07 10:25:52;;;;;;;;;;;5.70;99.90;;;;;;5053281;28;19956;-45
2022/01/07 10:28:19;;;;;;;;;;;5.70;99.90;;;;;;5052920;28;19947;-46
2022/01/07 10:30:46;;;;;;;;;;;5.70;99.90;;;;;;5045387;28;19913;-45
2022/01/07 10:33:24;;;;;;;;;;;5.60;99.90;;;;;;5037413;28;19909;-45
2022/01/07 10:36:05;;;;;;;;;;;5.60;99.90;;;;;;5036440;28;19963;-45
2022/01/07 10:38:31;;;;;;;;;;;5.60;99.90;;;;;;5050852;28;19921;-45
2022/01/07 10:41:00;;;;;;;;;;;5.50;99.90;;;;;;5032537;28;19921;-47
2022/01/07 10:43:27;;;;;;;;;;;5.50;99.90;;;;;;5033158;28;19909;-45
2022/01/07 10:45:57;;;;;;;;;;;5.50;99.90;;;;;;5033212;28;19971;-46
2022/01/07 10:48:34;;;;;;;;;;;5.40;99.90;;;;;;5043789;28;19917;-44
2022/01/07 10:51:04;;;;;;;;;;;5.50;99.90;;;;;;5032661;28;19909;-45
2022/01/07 10:53:30;;;;;;;;;;;5.50;99.90;;;;;;5048492;28;19909;-44
2022/01/07 10:55:58;;;;;;;;;;;5.50;99.90;;;;;;5052453;28;20264;-44
2022/01/07 10:58:24;;;;;;;;;;;5.50;99.90;;;;;;5052422;28;20050;-43
2022/01/07 11:00:49;;;;;;;;;;;5.50;99.90;;;;;;5052608;28;20436;-43
2022/01/07 11:03:15;;;;;;;;;;;5.50;99.90;;;;;;5052219;28;19917;-43
2022/01/07 11:05:42;;;;;;;;;;;5.50;99.90;;;;;;5036225;28;19916;-43
2022/01/07 11:08:07;;;;;;;;;;;5.40;99.90;;;;;;5032461;28;19909;-43
2022/01/07 11:10:33;;;;;;;;;;;5.40;99.90;;;;;;5033292;28;19909;-43
2022/01/07 11:12:59;;;;;;;;;;;5.40;99.90;;;;;;5032677;28;19913;-45
2022/01/07 11:15:25;;;;;;;;;;;5.40;99.90;;;;;;5031373;28;19970;-43
2022/01/07 11:17:50;;;;;;;;;;;5.50;99.90;;;;;;5032163;28;19909;-43
2022/01/07 11:20:23;;;;;;;;;;;5.50;99.90;;;;;;5030606;28;19917;-43
2022/01/07 11:22:49;;;;;;;;;;;5.50;99.90;;;;;;5030934;28;19955;-43
2022/01/07 11:25:15;;;;;;;;;;;5.60;99.90;;;;;;5030836;28;19910;-44
2022/01/07 11:27:49;;;;;;;;;;;5.60;99.90;;;;;;5033985;28;20012;-43
2022/01/07 11:30:17;;;;;;;;;;;5.70;99.90;;;;;;5032850;28;19980;-43
2022/01/07 11:32:46;;;;;;;;;;;5.70;99.90;;;;;;5033227;28;19909;-43
2022/01/07 11:35:17;;;;;;;;;;;5.70;99.90;;;;;;5032767;28;19913;-43
2022/01/07 11:37:44;;;;;;;;;;;5.80;99.90;;;;;;5032826;28;20016;-43
2022/01/07 11:40:25;;;;;;;;;;;5.80;99.90;;;;;;5032982;28;20315;-43
2022/01/07 11:42:51;;;;;;;;;;;5.90;99.90;;;;;;5033036;28;19910;-43
2022/01/07 11:45:37;;;;;;;;;;;5.80;99.90;;;;;;5033066;28;19909;-43
2022/01/07 11:48:27;;;;;;;;;;;5.80;99.90;;;;;;5040551;28;19913;-43
2022/01/07 11:50:54;;;;;;;;;;;5.70;99.90;;;;;;5056680;28;20328;-44
2022/01/07 11:53:19;;;;;;;;;;;5.60;99.90;;;;;;5056616;28;19948;-43
2022/01/07 11:55:45;;;;;;;;;;;5.60;99.90;;;;;;5056333;28;19944;-43
2022/01/07 11:58:11;;;;;;;;;;;5.60;99.90;;;;;;5056397;28;19935;-43
2022/01/07 12:00:52;;;;;;;;;;;5.60;99.90;;;;;;5056548;28;19917;-43
2022/01/07 12:03:36;;;;;;;;;;;5.60;99.90;;;;;;5055875;28;19909;-43
2022/01/07 12:06:17;;;;;;;;;;;5.60;99.90;;;;;;5054588;28;20379;-44
2022/01/07 12:09:05;;;;;;;;;;;5.70;99.90;;;;;;5056119;28;19908;-44
2022/01/07 12:11:35;;;;;;;;;;;5.70;99.90;;;;;;5056389;28;19951;-43
2022/01/07 12:14:02;;;;;;;;;;;5.80;99.90;;;;;;5056167;28;20268;-43
2022/01/07 12:16:28;;;;;;;;;;;5.80;99.90;;;;;;5055391;28;19909;-43
2022/01/07 12:19:12;;;;;;;;;;;5.90;99.90;;;;;;5056059;28;20311;-44
2022/01/07 12:21:38;;;;;;;;;;;5.90;99.90;;;;;;5056035;28;19988;-43
2022/01/07 12:24:07;;;;;;;;;;;6.00;99.90;;;;;;5055627;28;20000;-43
2022/01/07 12:26:32;;;;;;;;;;;6.00;99.90;;;;;;5052948;28;19913;-43
2022/01/07 12:28:58;;;;;;;;;;;6.10;99.90;;;;;;5055803;28;19935;-44
2022/01/07 12:31:23;;;;;;;;;;;6.00;99.90;;;;;;5054038;28;19909;-43
2022/01/07 12:33:53;;;;;;;;;;;6.00;99.90;;;;;;5046456;28;19994;-44
2022/01/07 12:36:26;;;;;;;;;;;5.90;99.90;;;;;;5035340;28;19909;-44
2022/01/07 12:39:03;;;;;;;;;;;5.80;99.90;;;;;;5077981;28;19921;-44
2022/01/07 12:41:28;;;;;;;;;;;5.70;99.90;;;;;;5088635;28;19916;-45
2022/01/07 12:44:08;;;;;;;;;;;5.60;99.90;;;;;;5094878;28;19908;-44
2022/01/07 12:46:33;;;;;;;;;;;5.50;99.90;;;;;;5074731;28;19908;-44
2022/01/07 12:48:59;;;;;;;;;;;5.40;99.90;;;;;;5074529;28;19991;-44
2022/01/07 12:51:24;;;;;;;;;;;5.40;99.90;;;;;;5074774;28;20309;-43
2022/01/07 12:53:54;;;;;;;;;;;5.50;99.90;;;;;;5074765;28;19915;-44
2022/01/07 12:56:28;;;;;;;;;;;5.60;99.90;;;;;;5082977;28;19939;-44
2022/01/07 12:58:54;;;;;;;;;;;5.70;99.90;;;;;;5084880;28;19908;-44
2022/01/07 13:01:23;;;;;;;;;;;5.80;99.90;;;;;;5093913;28;19912;-45
2022/01/07 13:03:59;;;;;;;;;;;5.80;99.90;;;;;;5076857;28;19909;-45
2022/01/07 13:06:25;;;;;;;;;;;5.80;99.90;;;;;;5074370;28;20275;-43
2022/01/07 13:08:50;;;;;;;;;;;5.70;99.90;;;;;;5074377;28;19909;-44
2022/01/07 13:11:18;;;;;;;;;;;5.60;99.90;;;;;;5074639;28;19912;-44
2022/01/07 13:13:43;;;;;;;;;;;5.50;99.90;;;;;;5095427;28;19912;-45
2022/01/07 13:16:09;;;;;;;;;;;5.40;99.90;;;;;;5095677;28;20285;-44
2022/01/07 13:18:35;;;;;;;;;;;5.30;99.90;;;;;;5094083;28;20363;-44
2022/01/07 13:21:09;;;;;;;;;;;5.40;99.90;;;;;;5098666;28;19924;-44
2022/01/07 13:23:39;;;;;;;;;;;5.50;99.90;;;;;;5100994;28;19962;-44
2022/01/07 13:26:04;;;;;;;;;;;5.60;99.90;;;;;;5102182;28;19922;-45
2022/01/07 13:28:34;;;;;;;;;;;5.60;99.90;;;;;;5104648;28;20008;-44
2022/01/07 13:31:00;;;;;;;;;;;5.50;99.90;;;;;;5095257;28;19916;-45
2022/01/07 13:33:27;;;;;;;;;;;5.50;99.90;;;;;;5073899;28;19909;-45
2022/01/07 13:35:54;;;;;;;;;;;5.50;99.90;;;;;;5073723;28;19909;-45
2022/01/07 13:38:19;;;;;;;;;;;5.50;99.90;;;;;;5073625;28;19952;-46
2022/01/07 13:40:44;;;;;;;;;;;5.50;99.90;;;;;;5073076;28;19956;-45
2022/01/07 13:43:11;;;;;;;;;;;5.50;99.90;;;;;;5073255;28;19916;-44
2022/01/07 13:45:37;;;;;;;;;;;5.50;99.90;;;;;;5073981;28;19916;-47
2022/01/07 13:48:04;;;;;;;;;;;5.50;99.90;;;;;;5073423;28;20011;-44
2022/01/07 13:50:31;;;;;;;;;;;5.50;99.90;;;;;;5073747;28;19912;-45
2022/01/07 13:52:56;;;;;;;;;;;5.50;99.90;;;;;;5073551;28;19909;-45
2022/01/07 13:55:26;;;;;;;;;;;5.50;99.90;;;;;;5082583;28;20247;-45
2022/01/07 13:57:52;;;;;;;;;;;5.50;99.90;;;;;;5094657;28;19920;-45
2022/01/07 14:00:17;;;;;;;;;;;5.50;99.90;;;;;;5093962;28;20006;-45
2022/01/07 14:02:46;;;;;;;;;;;5.40;99.90;;;;;;5097682;28;19915;-46
2022/01/07 14:05:13;;;;;;;;;;;5.40;99.90;;;;;;5098287;28;20266;-45
2022/01/07 14:07:45;;;;;;;;;;;5.40;99.90;;;;;;5098679;28;19908;-44
2022/01/07 14:10:15;;;;;;;;;;;5.40;99.90;;;;;;5093445;28;19965;-46
2022/01/07 14:12:48;;;;;;;;;;;5.40;99.90;;;;;;5093554;28;20381;-44
2022/01/07 14:15:14;;;;;;;;;;;5.40;99.90;;;;;;5093130;28;20370;-46
2022/01/07 14:17:41;;;;;;;;;;;5.40;99.90;;;;;;5074896;28;20431;-44
2022/01/07 14:20:08;;;;;;;;;;;5.40;99.90;;;;;;5072819;28;19923;-43
2022/01/07 14:22:39;;;;;;;;;;;5.30;99.90;;;;;;5072509;28;19916;-44
2022/01/07 14:25:05;;;;;;;;;;;5.30;99.90;;;;;;5072812;28;19962;-44
2022/01/07 14:27:33;;;;;;;;;;;5.30;99.90;;;;;;5073151;28;19978;-44
2022/01/07 14:29:58;;;;;;;;;;;5.20;99.90;;;;;;5072516;28;19919;-45
2022/01/07 14:32:25;;;;;;;;;;;5.20;99.90;;;;;;5072766;28;20007;-44